Time;durP1;ratioP1;P1;durP2;ratioP2;P2;SDS_P1;SDS_P2;PMS_P1;PMS_P2;Temp;Humidity;BMP_temperature;BMP_pressure;BME280_temperature;BME280_humidity;BME280_pressure;Samples;Min_cycle;Max_cycle;Signal;HPM_P1;HPM_P2
2021/01/21 00:02:23;;;;;;;3.03;2.20;;;6.60;70.40;;;;;;5120543;28;20506;-37
2021/01/21 00:04:49;;;;;;;4.50;1.70;;;6.60;70.40;;;;;;5120651;28;20248;-37
2021/01/21 00:07:15;;;;;;;3.93;1.80;;;6.60;70.20;;;;;;5120178;28;20230;-36
2021/01/21 00:09:41;;;;;;;2.47;1.83;;;6.60;70.10;;;;;;5119695;28;20652;-38
2021/01/21 00:12:07;;;;;;;3.13;2.17;;;6.60;70.10;;;;;;5120218;28;20520;-36
2021/01/21 00:14:33;;;;;;;2.10;1.90;;;6.60;69.90;;;;;;5120003;28;20232;-39
2021/01/21 00:16:59;;;;;;;2.77;1.80;;;6.50;69.80;;;;;;5120300;28;20434;-37
2021/01/21 00:19:25;;;;;;;2.13;1.60;;;6.50;70.10;;;;;;5120520;28;20490;-38
2021/01/21 00:21:51;;;;;;;5.47;2.03;;;6.60;70.20;;;;;;5120143;28;20302;-38
2021/01/21 00:24:17;;;;;;;4.10;2.27;;;6.60;70.00;;;;;;5120067;28;20184;-36
2021/01/21 00:26:43;;;;;;;3.00;2.60;;;6.50;70.20;;;;;;5119614;28;20485;-37
2021/01/21 00:29:10;;;;;;;2.97;2.33;;;6.50;70.20;;;;;;5119727;28;20409;-38
2021/01/21 00:31:36;;;;;;;3.10;2.00;;;6.40;70.40;;;;;;5119478;28;20413;-37
2021/01/21 00:34:02;;;;;;;3.43;2.63;;;6.40;70.90;;;;;;5119677;28;20412;-37
2021/01/21 00:36:28;;;;;;;2.70;2.30;;;6.40;71.60;;;;;;5119255;28;20425;-37
2021/01/21 00:38:54;;;;;;;3.57;2.40;;;6.30;72.30;;;;;;5119313;28;20516;-37
2021/01/21 00:41:20;;;;;;;3.10;2.47;;;6.20;72.60;;;;;;5119204;28;20195;-38
2021/01/21 00:43:46;;;;;;;2.67;2.30;;;6.20;73.00;;;;;;5119295;28;20425;-36
2021/01/21 00:46:11;;;;;;;3.27;2.40;;;6.20;73.00;;;;;;5118643;27;20188;-38
2021/01/21 00:48:37;;;;;;;3.30;2.23;;;6.10;73.60;;;;;;5118074;28;20892;-38
2021/01/21 00:51:03;;;;;;;2.27;2.07;;;6.10;73.60;;;;;;5118022;28;20195;-38
2021/01/21 00:53:29;;;;;;;3.17;2.40;;;6.10;74.00;;;;;;5118169;27;20666;-37
2021/01/21 00:55:56;;;;;;;4.17;2.90;;;6.10;74.00;;;;;;5118194;28;20409;-37
2021/01/21 00:58:22;;;;;;;3.27;2.50;;;6.00;74.30;;;;;;5118260;28;20417;-37
2021/01/21 01:00:48;;;;;;;2.60;2.40;;;5.90;74.60;;;;;;5119078;28;20441;-36
2021/01/21 01:03:14;;;;;;;2.60;2.10;;;5.90;74.70;;;;;;5119278;28;20199;-37
2021/01/21 01:05:39;;;;;;;3.10;2.30;;;5.90;74.60;;;;;;5118820;28;20191;-37
2021/01/21 01:08:05;;;;;;;2.57;2.33;;;5.90;74.90;;;;;;5119457;28;20481;-37
2021/01/21 01:10:31;;;;;;;2.43;1.97;;;5.90;75.40;;;;;;5119279;28;20550;-39
2021/01/21 01:12:57;;;;;;;3.37;2.27;;;5.90;75.30;;;;;;5119158;28;20699;-37
2021/01/21 01:15:26;;;;;;;6.47;2.73;;;5.90;75.40;;;;;;5119011;28;20227;-37
2021/01/21 01:17:52;;;;;;;2.67;1.90;;;5.90;75.10;;;;;;5119088;28;20433;-38
2021/01/21 01:20:18;;;;;;;2.40;2.00;;;5.90;74.80;;;;;;5118745;28;20421;-39
2021/01/21 01:22:51;;;;;;;2.77;1.77;;;6.00;74.40;;;;;;5119103;28;20183;-37
2021/01/21 01:25:18;;;;;;;2.40;2.00;;;6.00;73.80;;;;;;5118689;28;20493;-38
2021/01/21 01:27:44;;;;;;;2.73;1.77;;;6.10;73.90;;;;;;5118774;28;20481;-37
2021/01/21 01:30:14;;;;;;;4.37;2.40;;;6.20;72.90;;;;;;5118946;27;20692;-37
2021/01/21 01:32:40;;;;;;;2.97;2.10;;;6.30;72.60;;;;;;5120206;28;20216;-37
2021/01/21 01:35:07;;;;;;;2.27;2.03;;;6.40;72.30;;;;;;5119207;28;20457;-39
2021/01/21 01:37:33;;;;;;;3.00;2.47;;;6.40;72.20;;;;;;5118903;28;20464;-37
2021/01/21 01:39:59;;;;;;;3.27;2.00;;;6.50;72.20;;;;;;5119089;28;20859;-38
2021/01/21 01:42:26;;;;;;;3.77;1.70;;;6.60;72.00;;;;;;5118783;28;20426;-37
2021/01/21 01:44:52;;;;;;;2.77;1.97;;;6.70;71.50;;;;;;5118218;28;20418;-37
2021/01/21 01:47:18;;;;;;;3.03;2.20;;;6.70;71.40;;;;;;5118534;28;20663;-40
2021/01/21 01:49:45;;;;;;;2.20;1.63;;;6.70;71.60;;;;;;5117792;28;20444;-38
2021/01/21 01:52:11;;;;;;;3.30;2.30;;;6.70;71.80;;;;;;5117340;28;20425;-38
2021/01/21 01:54:39;;;;;;;5.77;2.00;;;6.80;71.10;;;;;;5118615;28;20413;-38
2021/01/21 01:57:06;;;;;;;3.57;2.13;;;6.90;70.70;;;;;;5117442;28;20493;-37
2021/01/21 01:59:34;;;;;;;3.20;1.70;;;6.90;70.40;;;;;;5118516;28;20822;-38
2021/01/21 02:05:22;;;;;;;1.80;1.57;;;6.80;70.60;;;;;;5117705;28;20428;-37
2021/01/21 02:07:48;;;;;;;3.27;2.00;;;6.80;70.60;;;;;;5118488;28;20477;-38
2021/01/21 02:10:15;;;;;;;3.20;1.67;;;6.90;70.60;;;;;;5118369;28;20509;-38
2021/01/21 02:13:18;;;;;;;1.97;1.73;;;6.90;70.40;;;;;;5117258;28;20417;-38
2021/01/21 02:15:59;;;;;;;3.30;2.10;;;6.90;70.10;;;;;;5117407;28;20870;-37
2021/01/21 02:18:42;;;;;;;2.07;1.90;;;6.90;69.80;;;;;;5117958;28;20418;-37
2021/01/21 02:21:45;;;;;;;2.90;2.30;;;7.00;69.40;;;;;;5117627;28;20437;-36
2021/01/21 02:24:48;;;;;;;2.20;1.43;;;7.00;69.80;;;;;;5117730;28;20502;-40
2021/01/21 02:27:15;;;;;;;3.97;1.90;;;7.00;69.10;;;;;;5118024;28;20750;-38
2021/01/21 02:29:42;;;;;;;5.83;1.90;;;7.00;69.00;;;;;;5116949;28;20409;-38
2021/01/21 02:32:08;;;;;;;1.90;1.70;;;7.00;69.40;;;;;;5118029;28;20422;-37
2021/01/21 02:34:51;;;;;;;2.77;1.90;;;7.00;68.80;;;;;;5117680;28;20420;-37
2021/01/21 02:37:26;;;;;;;3.97;1.87;;;7.00;68.80;;;;;;5117025;28;20838;-38
2021/01/21 02:39:54;;;;;;;2.57;1.90;;;6.90;69.20;;;;;;5117837;28;20437;-38
2021/01/21 02:42:20;;;;;;;2.43;1.80;;;6.90;69.20;;;;;;5117765;28;20437;-39
2021/01/21 02:44:47;;;;;;;2.80;1.60;;;6.90;69.60;;;;;;5117638;28;20425;-38
2021/01/21 02:47:14;;;;;;;1.90;1.70;;;6.90;70.00;;;;;;5118174;28;20496;-37
2021/01/21 02:49:40;;;;;;;4.50;1.90;;;6.90;70.10;;;;;;5122079;28;20513;-38
2021/01/21 02:52:12;;;;;;;6.00;2.07;;;6.80;70.40;;;;;;5120909;28;20436;-37
2021/01/21 02:54:45;;;;;;;2.30;1.60;;;6.70;70.60;;;;;;5121234;28;20424;-38
2021/01/21 02:57:20;;;;;;;2.57;2.03;;;6.70;70.90;;;;;;5121712;27;20406;-39
2021/01/21 02:59:46;;;;;;;2.83;1.40;;;6.80;70.90;;;;;;5121307;28;20409;-38
2021/01/21 03:02:13;;;;;;;2.80;1.67;;;6.80;70.70;;;;;;5120526;28;20829;-37
2021/01/21 03:04:39;;;;;;;3.40;1.93;;;6.90;70.80;;;;;;5121268;28;20422;-39
2021/01/21 03:07:08;;;;;;;1.80;1.40;;;6.90;70.40;;;;;;5121534;28;20456;-38
2021/01/21 03:09:35;;;;;;;1.83;1.47;;;6.90;71.10;;;;;;5120567;28;20846;-37
2021/01/21 03:12:25;;;;;;;2.13;1.47;;;6.90;70.00;;;;;;5120261;28;20880;-37
2021/01/21 03:14:52;;;;;;;2.23;1.83;;;6.90;69.40;;;;;;5121518;28;20469;-37
2021/01/21 03:17:24;;;;;;;2.13;1.10;;;7.00;68.50;;;;;;5121400;28;20688;-37
2021/01/21 03:19:50;;;;;;;2.30;1.33;;;7.10;67.80;;;;;;5121096;28;20405;-38
2021/01/21 03:22:16;;;;;;;1.83;1.40;;;7.20;67.40;;;;;;5121292;28;20413;-38
2021/01/21 03:24:42;;;;;;;1.73;1.63;;;7.20;67.40;;;;;;5120418;28;20428;-37
2021/01/21 03:27:09;;;;;;;4.50;1.63;;;7.20;67.50;;;;;;5121265;28;20800;-38
2021/01/21 03:29:35;;;;;;;2.13;1.43;;;7.30;67.10;;;;;;5136806;27;20425;-38
2021/01/21 03:32:01;;;;;;;2.30;1.37;;;7.40;66.50;;;;;;5120916;28;20760;-36
2021/01/21 03:34:27;;;;;;;2.13;1.40;;;7.60;65.60;;;;;;5120183;28;20449;-37
2021/01/21 03:36:53;;;;;;;3.77;1.93;;;7.80;65.10;;;;;;5121004;28;20730;-39
2021/01/21 03:39:20;;;;;;;2.03;1.43;;;7.80;65.20;;;;;;5120364;28;20195;-38
2021/01/21 03:41:45;;;;;;;1.67;1.47;;;7.80;65.10;;;;;;5120968;28;20520;-37
2021/01/21 03:44:11;;;;;;;3.70;1.60;;;7.80;65.50;;;;;;5121359;28;20521;-37
2021/01/21 03:46:37;;;;;;;1.90;1.30;;;7.80;65.30;;;;;;5120303;28;20227;-37
2021/01/21 03:49:03;;;;;;;2.53;1.30;;;7.90;64.00;;;;;;5119915;28;20191;-38
2021/01/21 03:51:30;;;;;;;2.20;1.60;;;7.90;64.50;;;;;;5125672;27;20417;-37
2021/01/21 03:53:56;;;;;;;3.07;1.33;;;7.90;63.70;;;;;;5132335;27;20424;-37
2021/01/21 03:56:22;;;;;;;3.60;1.73;;;7.90;63.40;;;;;;5131073;27;20418;-37
2021/01/21 03:58:48;;;;;;;4.40;1.73;;;8.00;62.90;;;;;;5138425;27;20202;-37
2021/01/21 04:01:14;;;;;;;6.90;2.40;;;8.00;63.20;;;;;;5141136;27;20187;-37
2021/01/21 04:03:40;;;;;;;3.00;1.73;;;8.00;63.80;;;;;;5140359;27;20425;-38
2021/01/21 04:06:06;;;;;;;2.17;1.53;;;7.90;63.20;;;;;;5140659;27;20464;-39
2021/01/21 04:08:32;;;;;;;3.03;1.10;;;7.90;63.10;;;;;;5140755;27;20468;-37
2021/01/21 04:10:58;;;;;;;2.00;1.80;;;7.90;63.10;;;;;;5140347;27;20504;-39
2021/01/21 04:13:24;;;;;;;3.77;1.43;;;7.90;63.50;;;;;;5140949;27;20547;-39
2021/01/21 04:15:50;;;;;;;1.40;1.17;;;7.90;63.90;;;;;;5140559;27;20465;-37
2021/01/21 04:18:16;;;;;;;2.13;1.37;;;7.80;64.20;;;;;;5140242;27;20195;-38
2021/01/21 04:20:42;;;;;;;2.33;1.73;;;7.80;64.40;;;;;;5140068;27;20691;-38
2021/01/21 04:23:08;;;;;;;2.30;1.70;;;7.80;64.10;;;;;;5140037;27;20431;-38
2021/01/21 04:25:34;;;;;;;3.43;1.53;;;7.80;64.20;;;;;;5138578;27;20209;-37
2021/01/21 04:28:00;;;;;;;1.80;1.20;;;7.90;64.40;;;;;;5139793;27;20465;-37
2021/01/21 04:30:26;;;;;;;2.40;1.50;;;7.80;64.50;;;;;;5140713;27;20517;-39
2021/01/21 04:32:52;;;;;;;2.80;1.50;;;7.80;64.70;;;;;;5140879;27;20445;-38
2021/01/21 04:35:19;;;;;;;2.07;1.17;;;7.80;64.70;;;;;;5141074;27;20421;-38
2021/01/21 04:37:45;;;;;;;2.60;1.67;;;7.80;64.30;;;;;;5140027;27;20178;-37
2021/01/21 04:40:11;;;;;;;3.07;1.77;;;7.80;64.40;;;;;;5140317;27;20437;-38
2021/01/21 04:42:37;;;;;;;1.77;1.50;;;7.90;64.60;;;;;;5139487;27;20428;-38
2021/01/21 04:45:06;;;;;;;2.67;1.53;;;7.80;64.90;;;;;;5139102;27;20508;-39
2021/01/21 04:47:33;;;;;;;3.27;2.00;;;7.80;65.00;;;;;;5138610;27;20475;-36
2021/01/21 04:50:00;;;;;;;1.50;1.40;;;7.70;65.10;;;;;;5138286;27;20421;-37
2021/01/21 04:52:26;;;;;;;2.80;1.50;;;7.70;65.20;;;;;;5138344;27;20416;-37
2021/01/21 04:54:56;;;;;;;2.70;1.40;;;7.70;65.60;;;;;;5119701;27;20726;-37
2021/01/21 04:57:37;;;;;;;1.93;1.60;;;7.70;65.90;;;;;;5137994;27;20898;-38
2021/01/21 05:00:05;;;;;;;2.63;1.30;;;7.60;65.30;;;;;;5135906;27;20425;-37
2021/01/21 05:02:31;;;;;;;2.60;1.10;;;7.60;65.40;;;;;;5138290;27;20429;-36
2021/01/21 05:04:57;;;;;;;2.20;1.60;;;7.60;65.80;;;;;;5138020;27;20408;-36
2021/01/21 05:07:24;;;;;;;2.03;1.30;;;7.60;65.60;;;;;;5138979;27;20494;-37
2021/01/21 05:09:50;;;;;;;1.53;1.13;;;7.60;65.60;;;;;;5137544;27;20772;-37
2021/01/21 05:12:16;;;;;;;1.93;1.50;;;7.70;65.60;;;;;;5138311;27;20500;-38
2021/01/21 05:14:42;;;;;;;1.90;1.00;;;7.70;65.90;;;;;;5138077;27;20605;-36
2021/01/21 05:17:08;;;;;;;2.43;1.60;;;7.70;65.30;;;;;;5139078;27;20424;-37
2021/01/21 05:19:35;;;;;;;2.50;1.60;;;7.70;65.20;;;;;;5139283;27;20595;-37
2021/01/21 05:22:01;;;;;;;2.50;1.43;;;7.70;64.90;;;;;;5139331;27;20428;-37
2021/01/21 05:24:27;;;;;;;2.70;1.90;;;7.70;64.60;;;;;;5139002;27;20413;-38
2021/01/21 05:26:54;;;;;;;1.47;1.07;;;7.80;64.20;;;;;;5137986;27;20461;-38
2021/01/21 05:29:20;;;;;;;2.30;1.30;;;7.90;64.20;;;;;;5138818;27;20416;-37
2021/01/21 05:31:48;;;;;;;1.20;1.00;;;7.90;64.00;;;;;;5138659;27;20429;-39
2021/01/21 05:34:17;;;;;;;2.60;1.73;;;7.90;63.70;;;;;;5137999;27;20421;-37
2021/01/21 05:36:46;;;;;;;1.87;1.53;;;8.00;63.20;;;;;;5139203;27;20519;-38
2021/01/21 05:39:12;;;;;;;1.50;1.23;;;8.00;63.00;;;;;;5137883;27;20530;-36
2021/01/21 05:41:38;;;;;;;2.30;1.53;;;8.10;62.90;;;;;;5138810;27;20453;-39
2021/01/21 05:44:07;;;;;;;4.10;1.27;;;8.10;62.90;;;;;;5121238;27;20445;-37
2021/01/21 05:46:35;;;;;;;1.83;1.30;;;8.10;62.80;;;;;;5118030;28;20429;-38
2021/01/21 05:49:04;;;;;;;2.20;1.23;;;8.10;62.00;;;;;;5117165;28;20443;-37
2021/01/21 05:51:30;;;;;;;2.40;1.40;;;8.20;61.50;;;;;;5117604;28;20445;-39
2021/01/21 05:53:56;;;;;;;2.00;1.23;;;8.20;61.80;;;;;;5117513;28;20494;-37
2021/01/21 05:56:23;;;;;;;1.40;1.20;;;8.20;61.70;;;;;;5117736;27;20414;-37
2021/01/21 05:58:50;;;;;;;2.10;1.27;;;8.20;61.60;;;;;;5117214;27;20495;-39
2021/01/21 06:01:16;;;;;;;2.23;1.20;;;8.30;61.40;;;;;;5114354;28;20417;-37
2021/01/21 06:03:42;;;;;;;1.87;1.50;;;8.30;61.20;;;;;;5115462;27;20717;-37
2021/01/21 06:06:10;;;;;;;2.30;1.67;;;8.30;60.90;;;;;;5113729;28;20422;-35
2021/01/21 06:08:42;;;;;;;2.10;1.20;;;8.30;60.60;;;;;;5136063;27;20490;-37
2021/01/21 06:11:08;;;;;;;1.67;1.27;;;8.40;60.60;;;;;;5137281;27;20663;-40
2021/01/21 06:13:44;;;;;;;1.87;1.27;;;8.30;60.30;;;;;;5128626;27;20437;-36
2021/01/21 06:16:13;;;;;;;1.43;1.27;;;8.30;60.10;;;;;;5115265;28;20762;-37
2021/01/21 06:18:39;;;;;;;2.93;1.20;;;8.30;60.30;;;;;;5122037;28;20694;-37
2021/01/21 06:21:07;;;;;;;2.70;1.40;;;8.40;60.10;;;;;;5136822;27;20532;-37
2021/01/21 06:23:34;;;;;;;2.50;1.97;;;8.40;59.80;;;;;;5136988;27;20525;-37
2021/01/21 06:26:00;;;;;;;11.50;2.00;;;8.40;59.60;;;;;;5140376;27;20771;-39
2021/01/21 06:28:28;;;;;;;1.97;1.40;;;8.50;59.70;;;;;;5138488;27;20474;-38
2021/01/21 06:30:57;;;;;;;2.07;1.57;;;8.50;59.50;;;;;;5139775;27;20775;-37
2021/01/21 06:33:29;;;;;;;2.17;1.97;;;8.50;59.70;;;;;;5139918;27;20896;-36
2021/01/21 06:36:00;;;;;;;1.70;1.30;;;8.50;59.80;;;;;;5140458;27;20417;-37
2021/01/21 06:38:39;;;;;;;1.73;1.40;;;8.50;59.90;;;;;;5139024;27;20497;-38
2021/01/21 06:41:08;;;;;;;2.30;1.53;;;8.50;60.10;;;;;;5139888;27;20740;-38
2021/01/21 06:43:41;;;;;;;1.87;1.33;;;8.60;60.30;;;;;;5140704;27;20527;-37
2021/01/21 06:46:14;;;;;;;2.47;2.27;;;8.50;60.70;;;;;;5140578;27;20525;-37
2021/01/21 06:48:49;;;;;;;1.87;1.67;;;8.50;60.90;;;;;;5141407;27;20464;-37
2021/01/21 06:51:16;;;;;;;2.83;1.77;;;8.50;61.00;;;;;;5142181;27;20423;-37
2021/01/21 06:53:44;;;;;;;1.97;1.50;;;8.50;61.50;;;;;;5141265;27;20435;-38
2021/01/21 06:56:11;;;;;;;2.50;1.60;;;8.50;61.90;;;;;;5141038;27;20417;-39
2021/01/21 06:58:50;;;;;;;1.70;1.50;;;8.50;62.70;;;;;;5123909;27;20441;-38
2021/01/21 07:01:32;;;;;;;1.30;1.20;;;8.50;64.00;;;;;;5121096;27;20425;-38
2021/01/21 07:04:04;;;;;;;2.07;1.47;;;8.40;65.30;;;;;;5120253;28;20425;-36
2021/01/21 07:06:52;;;;;;;1.47;1.10;;;8.40;67.10;;;;;;5120640;28;20819;-38
2021/01/21 07:09:21;;;;;;;2.07;1.20;;;8.40;68.90;;;;;;5120445;27;20459;-37
2021/01/21 07:11:48;;;;;;;1.60;1.27;;;8.40;71.00;;;;;;5120691;28;20421;-37
2021/01/21 07:14:21;;;;;;;2.20;1.20;;;8.40;72.20;;;;;;5119822;27;20555;-37
2021/01/21 07:16:54;;;;;;;1.70;1.17;;;8.40;74.10;;;;;;5119400;28;20517;-38
2021/01/21 07:19:44;;;;;;;1.60;1.00;;;8.40;75.70;;;;;;5120451;28;20425;-38
2021/01/21 07:22:19;;;;;;;3.10;1.37;;;8.40;77.50;;;;;;5120787;28;20459;-37
2021/01/21 07:25:09;;;;;;;2.00;1.20;;;8.40;78.90;;;;;;5121052;28;20409;-39
2021/01/21 07:27:35;;;;;;;1.60;1.10;;;8.40;79.70;;;;;;5122123;28;20541;-38
2021/01/21 07:30:22;;;;;;;1.90;1.20;;;8.40;80.60;;;;;;5121808;28;20414;-39
2021/01/21 07:32:48;;;;;;;1.50;1.10;;;8.40;80.90;;;;;;5119378;28;20857;-39
2021/01/21 07:35:32;;;;;;;2.00;1.20;;;8.40;81.40;;;;;;5120408;28;20417;-39
2021/01/21 07:37:59;;;;;;;2.40;1.10;;;8.40;81.90;;;;;;5120489;27;20525;-38
2021/01/21 07:40:46;;;;;;;2.07;1.10;;;8.30;82.20;;;;;;5120184;28;20456;-38
2021/01/21 07:43:12;;;;;;;1.73;1.07;;;8.40;82.40;;;;;;5120806;28;20421;-38
2021/01/21 07:45:39;;;;;;;1.50;1.20;;;8.40;82.70;;;;;;5120430;28;20437;-37
2021/01/21 07:48:25;;;;;;;1.80;1.10;;;8.40;82.90;;;;;;5118568;28;20530;-38
2021/01/21 07:50:54;;;;;;;1.07;0.90;;;8.40;82.90;;;;;;5119820;28;20459;-37
2021/01/21 07:53:24;;;;;;;1.40;1.00;;;8.40;83.20;;;;;;5118406;28;20421;-38
2021/01/21 07:55:54;;;;;;;1.63;1.20;;;8.40;83.00;;;;;;5116575;28;20424;-38
2021/01/21 07:58:23;;;;;;;1.37;1.10;;;8.50;83.70;;;;;;5116632;28;20414;-37
2021/01/21 08:00:54;;;;;;;2.87;1.17;;;8.60;82.70;;;;;;5116989;28;20418;-37
2021/01/21 08:03:47;;;;;;;1.47;1.30;;;8.80;82.00;;;;;;5116661;27;20791;-38
2021/01/21 08:06:18;;;;;;;1.50;1.03;;;9.10;80.90;;;;;;5113469;28;20503;-39
2021/01/21 08:08:45;;;;;;;1.40;0.93;;;9.80;79.40;;;;;;5117351;28;20886;-37
2021/01/21 08:11:16;;;;;;;1.37;1.10;;;10.20;76.60;;;;;;5117874;28;20413;-38
2021/01/21 08:13:42;;;;;;;2.20;1.20;;;10.40;75.20;;;;;;5119304;28;20406;-38
2021/01/21 08:16:18;;;;;;;1.43;1.10;;;10.30;75.00;;;;;;5119361;28;20414;-39
2021/01/21 08:18:45;;;;;;;2.10;1.13;;;10.20;76.00;;;;;;5118878;28;20424;-37
2021/01/21 08:21:25;;;;;;;1.33;1.03;;;10.30;74.50;;;;;;5126253;27;20428;-38
2021/01/21 08:23:59;;;;;;;1.67;1.10;;;10.10;75.30;;;;;;5117373;28;20413;-39
2021/01/21 08:26:29;;;;;;;2.10;1.20;;;9.90;77.10;;;;;;5116298;28;20410;-39
2021/01/21 08:28:56;;;;;;;1.50;1.20;;;9.90;78.20;;;;;;5117584;28;20772;-38
2021/01/21 08:31:40;;;;;;;3.33;1.00;;;9.70;78.50;;;;;;5117596;28;20410;-39
2021/01/21 08:34:17;;;;;;;1.70;1.13;;;9.90;78.60;;;;;;5116925;28;20779;-39
2021/01/21 08:36:45;;;;;;;2.30;1.20;;;10.40;77.00;;;;;;5117070;28;20935;-38
2021/01/21 08:39:11;;;;;;;2.93;1.30;;;10.80;75.40;;;;;;5118814;28;20866;-39
2021/01/21 08:41:38;;;;;;;2.60;1.10;;;10.80;74.90;;;;;;5117016;28;20433;-36
2021/01/21 08:44:05;;;;;;;1.63;1.20;;;11.30;74.70;;;;;;5118919;28;20443;-37
2021/01/21 08:46:31;;;;;;;3.07;0.80;;;11.30;73.30;;;;;;5117178;28;20606;-39
2021/01/21 08:49:08;;;;;;;1.67;1.07;;;11.00;74.20;;;;;;5118049;28;20421;-38
2021/01/21 08:51:44;;;;;;;1.60;1.07;;;10.70;75.90;;;;;;5114696;28;21054;-39
2021/01/21 08:54:17;;;;;;;2.10;1.00;;;10.30;76.70;;;;;;5117882;28;20849;-38
2021/01/21 08:56:45;;;;;;;1.10;0.90;;;10.10;77.80;;;;;;5117586;28;20706;-39
2021/01/21 08:59:30;;;;;;;1.30;1.10;;;10.00;78.40;;;;;;5117571;28;20433;-38
2021/01/21 09:01:57;;;;;;;3.57;1.30;;;10.20;78.00;;;;;;5116132;28;20485;-37
2021/01/21 09:04:31;;;;;;;1.13;0.80;;;11.30;75.60;;;;;;5117700;28;20427;-39
2021/01/21 09:06:58;;;;;;;1.10;0.87;;;11.70;73.20;;;;;;5117578;28;20453;-39
2021/01/21 09:09:28;;;;;;;1.27;0.77;;;11.90;71.70;;;;;;5118297;28;20482;-39
2021/01/21 09:11:55;;;;;;;1.90;1.23;;;12.50;71.20;;;;;;5117600;28;20401;-39
2021/01/21 09:14:23;;;;;;;3.17;1.27;;;12.60;70.00;;;;;;5118264;28;20457;-38
2021/01/21 09:16:51;;;;;;;1.50;0.93;;;12.90;69.00;;;;;;5118303;28;20754;-38
2021/01/21 09:19:27;;;;;;;1.73;1.20;;;12.80;68.30;;;;;;5115795;28;20425;-38
2021/01/21 09:21:59;;;;;;;1.37;0.83;;;13.10;68.40;;;;;;5118073;28;20416;-38
2021/01/21 09:24:25;;;;;;;1.57;0.93;;;12.70;69.00;;;;;;5118619;28;20424;-38
2021/01/21 09:27:13;;;;;;;5.20;1.00;;;13.20;69.00;;;;;;5117066;28;20457;-38
2021/01/21 09:29:51;;;;;;;1.37;0.90;;;13.50;66.60;;;;;;5116404;28;20458;-39
2021/01/21 09:32:18;;;;;;;1.97;1.30;;;13.60;65.40;;;;;;5118168;28;21491;-39
2021/01/21 09:35:01;;;;;;;1.40;0.90;;;14.00;66.00;;;;;;5117272;28;20433;-38
2021/01/21 09:37:29;;;;;;;2.03;1.13;;;15.00;62.30;;;;;;5117214;28;20893;-39
2021/01/21 09:39:56;;;;;;;1.27;0.77;;;15.00;60.80;;;;;;5116007;28;20418;-39
2021/01/21 09:42:22;;;;;;;2.87;1.20;;;14.70;61.90;;;;;;5117322;28;20502;-39
2021/01/21 09:44:48;;;;;;;1.60;1.10;;;15.90;60.20;;;;;;5116600;28;20409;-38
2021/01/21 09:47:14;;;;;;;1.27;0.93;;;16.70;58.70;;;;;;5117413;28;20467;-38
2021/01/21 09:49:42;;;;;;;1.50;0.90;;;16.90;57.20;;;;;;5117053;28;20516;-38
2021/01/21 09:52:08;;;;;;;2.73;1.37;;;17.20;56.20;;;;;;5117202;28;20417;-38
2021/01/21 09:54:34;;;;;;;2.30;1.00;;;16.60;56.30;;;;;;5117840;28;20405;-38
2021/01/21 09:57:00;;;;;;;0.93;0.63;;;17.00;55.90;;;;;;5116442;28;20406;-37
2021/01/21 09:59:26;;;;;;;1.20;0.70;;;16.30;56.30;;;;;;5116829;28;20418;-39
2021/01/21 10:01:52;;;;;;;1.97;1.00;;;16.10;56.00;;;;;;5116949;28;20804;-39
2021/01/21 10:04:18;;;;;;;1.50;1.13;;;14.80;57.40;;;;;;5117049;28;20406;-39
2021/01/21 10:06:44;;;;;;;1.47;1.17;;;14.50;58.50;;;;;;5117166;28;20190;-38
2021/01/21 10:09:10;;;;;;;1.30;0.90;;;14.70;59.20;;;;;;5116549;28;20458;-37
2021/01/21 10:11:36;;;;;;;1.30;0.83;;;15.40;58.70;;;;;;5116809;28;20504;-38
2021/01/21 10:14:02;;;;;;;1.27;0.90;;;14.30;58.50;;;;;;5117252;28;20789;-38
2021/01/21 10:16:29;;;;;;;1.43;1.07;;;14.70;60.10;;;;;;5114991;28;20179;-39
2021/01/21 10:18:56;;;;;;;1.40;1.10;;;15.50;59.00;;;;;;5116127;28;20428;-38
2021/01/21 10:21:26;;;;;;;1.30;0.80;;;15.30;57.90;;;;;;5118141;28;20436;-40
2021/01/21 10:23:52;;;;;;;1.70;0.87;;;15.80;57.90;;;;;;5117645;28;20433;-39
2021/01/21 10:26:19;;;;;;;1.37;0.80;;;15.10;57.80;;;;;;5116221;28;20858;-37
2021/01/21 10:28:45;;;;;;;1.63;1.00;;;14.30;58.80;;;;;;5116423;28;20477;-39
2021/01/21 10:31:11;;;;;;;1.50;0.90;;;13.70;59.80;;;;;;5117468;28;20416;-37
2021/01/21 10:33:37;;;;;;;1.30;0.90;;;13.10;62.20;;;;;;5117357;28;20527;-38
2021/01/21 10:36:04;;;;;;;0.90;0.70;;;12.70;63.80;;;;;;5117306;28;20190;-38
2021/01/21 10:38:30;;;;;;;1.83;1.20;;;13.10;65.50;;;;;;5117349;28;20742;-38
2021/01/21 10:40:56;;;;;;;1.73;0.87;;;13.90;63.50;;;;;;5116324;28;20421;-38
2021/01/21 10:43:22;;;;;;;1.20;0.80;;;13.10;63.60;;;;;;5116802;28;20879;-38
2021/01/21 10:45:48;;;;;;;3.03;1.20;;;12.90;64.70;;;;;;5116091;28;20441;-38
2021/01/21 10:48:14;;;;;;;1.50;1.20;;;13.00;66.40;;;;;;5116919;28;20207;-39
2021/01/21 10:50:40;;;;;;;2.63;1.20;;;12.80;68.30;;;;;;5115571;28;20587;-38
2021/01/21 10:53:05;;;;;;;1.80;1.20;;;12.60;70.30;;;;;;5116922;28;20422;-38
2021/01/21 10:55:31;;;;;;;2.13;1.07;;;12.50;70.80;;;;;;5116327;28;20707;-37
2021/01/21 10:57:57;;;;;;;1.50;1.40;;;12.60;71.20;;;;;;5117001;28;20176;-37
2021/01/21 11:00:23;;;;;;;1.53;1.03;;;12.30;72.50;;;;;;5116914;28;20609;-37
2021/01/21 11:02:49;;;;;;;1.43;1.03;;;12.30;74.50;;;;;;5117402;28;20453;-38
2021/01/21 11:05:15;;;;;;;1.83;1.13;;;13.10;73.20;;;;;;5116902;28;20214;-37
2021/01/21 11:07:41;;;;;;;2.63;1.33;;;13.00;71.90;;;;;;5123291;27;20268;-37
2021/01/21 11:10:14;;;;;;;1.47;1.00;;;12.60;73.70;;;;;;5141287;27;20423;-38
2021/01/21 11:12:40;;;;;;;1.40;0.70;;;12.60;75.10;;;;;;5141317;27;20497;-37
2021/01/21 11:15:06;;;;;;;1.90;0.90;;;12.30;76.20;;;;;;5140778;27;20743;-37
2021/01/21 11:17:33;;;;;;;1.43;1.17;;;12.50;76.80;;;;;;5139822;27;20772;-37
2021/01/21 11:19:59;;;;;;;1.40;1.00;;;12.80;76.40;;;;;;5138834;27;20412;-38
2021/01/21 11:22:24;;;;;;;1.90;1.20;;;12.50;75.00;;;;;;5138914;27;20420;-38
2021/01/21 11:24:51;;;;;;;3.20;1.10;;;12.30;75.00;;;;;;5138690;27;20234;-40
2021/01/21 11:27:17;;;;;;;2.20;1.00;;;12.40;75.90;;;;;;5138959;27;21572;-38
2021/01/21 11:29:43;;;;;;;1.80;1.20;;;12.60;74.30;;;;;;5139427;27;20504;-38
2021/01/21 11:32:09;;;;;;;1.57;1.20;;;13.00;73.20;;;;;;5140721;27;20495;-38
2021/01/21 11:34:35;;;;;;;1.70;1.30;;;12.60;73.40;;;;;;5140981;27;20433;-38
2021/01/21 11:37:00;;;;;;;3.00;1.30;;;12.50;72.90;;;;;;5138510;27;20409;-37
2021/01/21 11:39:26;;;;;;;1.30;1.20;;;12.40;74.20;;;;;;5138955;27;20417;-39
2021/01/21 11:41:53;;;;;;;2.07;1.50;;;12.50;73.30;;;;;;5138275;27;20175;-38
2021/01/21 11:44:19;;;;;;;3.80;1.60;;;12.20;73.50;;;;;;5139270;27;20438;-38
2021/01/21 11:46:44;;;;;;;1.83;1.13;;;12.40;73.70;;;;;;5138019;27;20686;-40
2021/01/21 11:49:10;;;;;;;2.00;1.20;;;12.50;73.30;;;;;;5139028;27;20429;-39
2021/01/21 11:51:36;;;;;;;3.33;1.27;;;12.20;73.40;;;;;;5140343;27;20271;-37
2021/01/21 11:54:02;;;;;;;2.93;1.30;;;12.30;73.40;;;;;;5139812;27;20179;-38
2021/01/21 11:56:29;;;;;;;1.63;1.33;;;12.30;73.40;;;;;;5139398;27;20424;-37
2021/01/21 11:58:56;;;;;;;3.40;1.70;;;12.40;73.50;;;;;;5139070;27;20687;-37
2021/01/21 12:01:22;;;;;;;2.43;1.40;;;12.40;73.40;;;;;;5140748;27;20408;-37
2021/01/21 12:03:47;;;;;;;2.20;1.00;;;12.20;73.20;;;;;;5139397;27;20286;-38
2021/01/21 12:06:13;;;;;;;1.40;1.27;;;12.30;74.00;;;;;;5138465;27;20515;-37
2021/01/21 12:08:39;;;;;;;1.57;1.10;;;12.50;73.10;;;;;;5138563;27;20438;-38
2021/01/21 12:11:05;;;;;;;1.60;1.00;;;12.50;73.50;;;;;;5137824;27;20259;-40
2021/01/21 12:13:31;;;;;;;1.33;1.07;;;12.60;73.20;;;;;;5136983;27;20206;-38
2021/01/21 12:15:59;;;;;;;1.60;1.27;;;12.60;72.80;;;;;;5137174;27;20472;-38
2021/01/21 12:18:26;;;;;;;1.47;1.13;;;12.50;73.40;;;;;;5137375;27;20195;-38
2021/01/21 12:20:53;;;;;;;1.20;0.80;;;12.60;73.40;;;;;;5139857;27;20429;-38
2021/01/21 12:23:18;;;;;;;1.97;1.43;;;12.40;73.20;;;;;;5138611;27;20930;-38
2021/01/21 12:25:44;;;;;;;1.50;1.10;;;12.50;73.40;;;;;;5138560;27;20417;-38
2021/01/21 12:28:10;;;;;;;1.33;1.03;;;12.60;74.40;;;;;;5137888;27;20217;-38
2021/01/21 12:30:36;;;;;;;1.50;1.10;;;13.00;72.40;;;;;;5138451;27;20179;-38
2021/01/21 12:33:02;;;;;;;1.60;1.30;;;13.20;71.80;;;;;;5139405;27;20413;-37
2021/01/21 12:35:28;;;;;;;3.07;1.50;;;13.00;71.20;;;;;;5138237;27;20953;-38
2021/01/21 12:37:54;;;;;;;1.50;1.20;;;12.70;72.40;;;;;;5138936;27;20421;-38
2021/01/21 12:40:20;;;;;;;2.10;1.07;;;12.70;72.30;;;;;;5139362;27;20179;-38
2021/01/21 12:42:46;;;;;;;2.17;1.37;;;12.50;72.80;;;;;;5137349;27;20208;-37
2021/01/21 12:45:12;;;;;;;2.60;1.60;;;12.40;73.50;;;;;;5137320;27;20409;-38
2021/01/21 12:47:38;;;;;;;1.73;1.33;;;11.90;74.40;;;;;;5137125;27;20294;-37
2021/01/21 12:50:05;;;;;;;1.53;1.37;;;11.90;74.70;;;;;;5136790;27;20573;-37
2021/01/21 12:52:31;;;;;;;2.17;1.40;;;11.70;76.10;;;;;;5139238;27;20609;-37
2021/01/21 12:54:58;;;;;;;2.50;1.70;;;11.70;76.70;;;;;;5138692;27;20519;-38
2021/01/21 12:57:24;;;;;;;1.93;0.90;;;11.80;76.30;;;;;;5137669;27;20187;-38
2021/01/21 12:59:51;;;;;;;2.63;1.40;;;11.80;76.80;;;;;;5138485;27;20425;-39
2021/01/21 13:02:17;;;;;;;1.90;1.40;;;11.90;76.70;;;;;;5136384;27;20440;-39
2021/01/21 13:04:44;;;;;;;4.33;1.70;;;12.10;76.40;;;;;;5129148;27;20421;-40